Time;durP1;ratioP1;P1;durP2;ratioP2;P2;SDS_P1;SDS_P2;PMS_P1;PMS_P2;Temp;Humidity;BMP_temperature;BMP_pressure;BME280_temperature;BME280_humidity;BME280_pressure;Samples;Min_cycle;Max_cycle;Signal;HPM_P1;HPM_P2
2020/12/31 00:00:49;;;;;;;104.12;46.90;;;;;;;-2.58;80.49;99321.69;2068804;84;21228;-72
2020/12/31 00:03:51;;;;;;;107.30;51.60;;;;;;;-2.59;80.54;99320.03;2073333;84;21152;-72
2020/12/31 00:06:53;;;;;;;113.12;53.20;;;;;;;-2.68;80.53;99323.70;2077686;84;21221;-72
2020/12/31 00:09:54;;;;;;;116.47;53.55;;;;;;;-2.76;80.52;99319.00;2070219;84;21163;-72
2020/12/31 00:12:58;;;;;;;125.70;63.60;;;;;;;-2.84;80.63;99326.50;2070458;84;21183;-73
2020/12/31 00:16:01;;;;;;;117.15;55.08;;;;;;;-2.93;80.72;99331.80;2078828;84;21148;-72
2020/12/31 00:19:04;;;;;;;122.65;54.18;;;;;;;-2.92;81.01;99333.95;2074094;84;21611;-72
2020/12/31 00:22:05;;;;;;;115.22;54.40;;;;;;;-2.82;81.29;99337.12;2095238;82;21157;-72
2020/12/31 00:25:10;;;;;;;126.12;58.02;;;;;;;-2.68;81.31;99335.38;2119966;82;21185;-72
2020/12/31 00:28:11;;;;;;;128.85;54.10;;;;;;;-2.60;81.10;99335.70;2122368;82;21121;-72
2020/12/31 00:31:13;;;;;;;106.47;51.23;;;;;;;-2.65;80.88;99341.67;2119325;82;21107;-72
2020/12/31 00:34:16;;;;;;;112.37;53.00;;;;;;;-2.73;80.90;99337.00;2118818;82;21225;-72
2020/12/31 00:37:18;;;;;;;126.30;57.23;;;;;;;-2.71;81.08;99352.83;2117981;82;21174;-72
2020/12/31 00:40:20;;;;;;;107.07;53.23;;;;;;;-2.69;81.12;99345.42;2121678;82;21645;-72
2020/12/31 00:43:21;;;;;;;107.17;52.13;;;;;;;-2.76;81.15;99343.23;2120029;82;21172;-72
2020/12/31 00:46:23;;;;;;;116.60;55.10;;;;;;;-2.80;81.19;99344.34;2122527;82;21129;-73
2020/12/31 00:49:24;;;;;;;117.15;54.05;;;;;;;-2.80;81.27;99344.82;2119657;82;21121;-73
2020/12/31 00:52:26;;;;;;;112.50;48.87;;;;;;;-2.78;81.22;99346.39;2122073;82;21174;-74
2020/12/31 00:55:28;;;;;;;99.77;48.78;;;;;;;-2.75;81.05;99349.25;2118815;82;21228;-72
2020/12/31 00:58:30;;;;;;;109.45;49.67;;;;;;;-2.74;80.64;99350.43;2120146;82;21121;-73
2020/12/31 01:01:34;;;;;;;112.00;51.95;;;;;;;-2.77;80.56;99346.74;2121004;82;21221;-72
2020/12/31 01:04:35;;;;;;;113.77;52.27;;;;;;;-2.79;80.60;99351.67;2116669;82;21160;-72
2020/12/31 01:07:37;;;;;;;103.12;50.75;;;;;;;-2.82;80.66;99346.67;2121090;82;21123;-72
2020/12/31 01:10:39;;;;;;;102.65;50.15;;;;;;;-2.79;80.70;99350.37;2121559;82;21130;-72
2020/12/31 01:13:40;;;;;;;111.68;51.63;;;;;;;-2.81;80.87;99354.38;2122346;82;21075;-72
2020/12/31 01:16:47;;;;;;;102.17;49.25;;;;;;;-2.82;80.79;99348.80;2118064;82;22097;-71
2020/12/31 01:19:48;;;;;;;108.40;50.38;;;;;;;-2.81;80.83;99347.89;2120310;82;21102;-73
2020/12/31 01:22:53;;;;;;;99.05;48.13;;;;;;;-2.76;80.92;99351.46;2132543;81;21650;-73
2020/12/31 01:25:54;;;;;;;107.63;51.00;;;;;;;-2.75;81.03;99352.67;2141129;81;21126;-73
2020/12/31 01:28:56;;;;;;;100.55;46.35;;;;;;;-2.74;80.87;99351.73;2140364;81;21580;-72
2020/12/31 01:31:57;;;;;;;105.25;48.92;;;;;;;-2.72;80.57;99346.45;2140719;81;21176;-73
2020/12/31 01:34:59;;;;;;;102.95;49.13;;;;;;;-2.78;80.64;99354.17;2141328;81;21096;-73
2020/12/31 01:38:01;;;;;;;98.33;49.15;;;;;;;-2.82;80.64;99351.87;2142811;81;21191;-72
2020/12/31 01:41:02;;;;;;;111.62;53.23;;;;;;;-2.85;80.58;99355.97;2140684;81;21124;-72
2020/12/31 01:44:09;;;;;;;104.53;49.98;;;;;;;-2.87;80.68;99353.93;2113466;81;21136;-72
2020/12/31 01:47:13;;;;;;;116.05;53.10;;;;;;;-2.97;80.61;99356.31;2141916;81;21191;-73
2020/12/31 01:50:14;;;;;;;116.65;53.85;;;;;;;-3.06;80.69;99366.00;2141745;80;21178;-73
2020/12/31 01:53:16;;;;;;;120.80;54.15;;;;;;;-3.05;80.95;99364.58;2138761;81;21104;-73
2020/12/31 01:56:20;;;;;;;113.03;52.30;;;;;;;-3.05;80.90;99379.33;2144679;81;21083;-73
2020/12/31 01:59:21;;;;;;;124.90;55.67;;;;;;;-3.09;80.91;99370.09;2113876;82;21177;-73
2020/12/31 02:02:24;;;;;;;108.92;51.70;;;;;;;-3.06;80.98;99369.89;2143844;81;21069;-73
2020/12/31 02:05:26;;;;;;;115.97;52.05;;;;;;;-3.05;80.92;99380.62;2142829;81;21136;-73
2020/12/31 02:08:28;;;;;;;121.82;55.33;;;;;;;-3.02;81.16;99377.36;2139239;81;21508;-73
2020/12/31 02:11:29;;;;;;;115.35;52.45;;;;;;;-3.00;81.01;99374.20;2145619;81;21176;-73
2020/12/31 02:14:32;;;;;;;108.65;50.80;;;;;;;-3.03;80.87;99377.47;2140969;81;21148;-73
2020/12/31 02:17:33;;;;;;;123.62;55.28;;;;;;;-3.09;80.75;99378.70;2142343;80;21356;-73
2020/12/31 02:20:34;;;;;;;116.57;52.35;;;;;;;-3.12;81.13;99384.56;2140442;81;21622;-74
2020/12/31 02:23:36;;;;;;;109.07;51.10;;;;;;;-3.14;81.17;99384.64;2129524;81;21173;-73
2020/12/31 02:26:39;;;;;;;110.17;50.00;;;;;;;-3.08;81.18;99391.20;2099394;83;21137;-73
2020/12/31 02:29:41;;;;;;;119.70;56.55;;;;;;;-3.03;81.13;99388.69;2121965;82;21124;-73
2020/12/31 02:32:42;;;;;;;111.72;52.65;;;;;;;-2.98;80.95;99382.73;2113652;82;21536;-73
2020/12/31 02:35:44;;;;;;;112.10;52.55;;;;;;;-3.04;80.83;99384.88;2117661;82;21055;-73
2020/12/31 02:38:46;;;;;;;106.78;51.00;;;;;;;-3.08;80.83;99384.25;2116232;82;21094;-73
2020/12/31 02:41:48;;;;;;;108.07;50.98;;;;;;;-3.04;80.92;99392.66;2114862;82;21181;-73
2020/12/31 02:44:49;;;;;;;109.83;48.65;;;;;;;-2.98;80.83;99391.00;2118097;82;21794;-73
2020/12/31 02:47:51;;;;;;;103.95;48.45;;;;;;;-2.91;80.84;99392.72;2112588;82;21109;-73
2020/12/31 02:50:52;;;;;;;105.72;48.90;;;;;;;-2.94;80.41;99391.98;2116925;82;21604;-73
2020/12/31 02:53:54;;;;;;;106.55;49.60;;;;;;;-2.97;80.52;99395.25;2112678;82;21066;-73
2020/12/31 02:56:55;;;;;;;103.40;49.10;;;;;;;-2.96;80.79;99396.90;2116380;82;21133;-74
2020/12/31 02:59:56;;;;;;;107.20;51.20;;;;;;;-2.97;80.65;99401.73;2120661;82;21585;-73
2020/12/31 03:02:58;;;;;;;111.97;51.77;;;;;;;-2.98;80.80;99400.08;2113131;82;21069;-73
2020/12/31 03:05:59;;;;;;;100.10;50.60;;;;;;;-3.01;80.71;99397.69;2113009;82;21158;-73
2020/12/31 03:09:01;;;;;;;103.65;46.68;;;;;;;-3.10;80.70;99402.14;2116441;82;21580;-73
2020/12/31 03:12:03;;;;;;;102.22;47.48;;;;;;;-3.17;80.73;99408.20;2118687;82;21216;-73
2020/12/31 03:15:09;;;;;;;96.70;43.15;;;;;;;-3.20;80.88;99407.09;2114190;82;21141;-72
2020/12/31 03:18:10;;;;;;;90.60;40.25;;;;;;;-3.20;80.87;99401.91;2113997;82;21537;-73
2020/12/31 03:21:12;;;;;;;90.90;41.98;;;;;;;-3.26;80.86;99399.23;2112110;82;21123;-72
2020/12/31 03:24:13;;;;;;;88.03;41.10;;;;;;;-3.33;80.88;99405.72;2113664;82;21122;-72
2020/12/31 03:27:14;;;;;;;93.62;43.15;;;;;;;-3.32;81.02;99394.88;2115065;82;21144;-74
2020/12/31 03:30:16;;;;;;;92.75;42.23;;;;;;;-3.29;80.99;99394.71;2116588;82;21212;-73
2020/12/31 03:33:18;;;;;;;98.95;44.05;;;;;;;-3.26;81.26;99395.34;2112056;82;21137;-73
2020/12/31 03:36:19;;;;;;;99.10;44.60;;;;;;;-3.23;80.93;99400.34;2115701;82;21192;-73
2020/12/31 03:39:21;;;;;;;97.40;44.08;;;;;;;-3.23;80.77;99393.02;2112702;82;21228;-73
2020/12/31 03:42:22;;;;;;;92.97;43.90;;;;;;;-3.20;80.72;99392.36;2116681;82;21224;-73
2020/12/31 03:45:24;;;;;;;100.05;44.48;;;;;;;-3.19;80.60;99398.37;2114278;82;21203;-73
2020/12/31 03:48:25;;;;;;;94.60;44.20;;;;;;;-3.19;80.48;99400.97;2110172;82;21193;-73
2020/12/31 03:51:26;;;;;;;96.05;42.45;;;;;;;-3.25;80.36;99402.19;2109253;82;21536;-73
2020/12/31 03:54:28;;;;;;;96.35;42.08;;;;;;;-3.28;80.52;99403.68;2116869;82;21174;-72
2020/12/31 03:57:29;;;;;;;95.65;43.75;;;;;;;-3.31;80.54;99405.64;2113685;82;21592;-73
2020/12/31 04:00:31;;;;;;;93.42;41.53;;;;;;;-3.34;80.63;99396.28;2115437;82;21503;-73
2020/12/31 04:03:32;;;;;;;90.38;41.53;;;;;;;-3.30;80.73;99405.53;2115736;82;21556;-72
2020/12/31 04:06:33;;;;;;;87.97;43.13;;;;;;;-3.28;80.49;99403.68;2113512;82;21136;-73
2020/12/31 04:09:36;;;;;;;96.28;44.73;;;;;;;-3.27;80.55;99403.20;2115563;82;21521;-72
2020/12/31 04:12:37;;;;;;;88.55;42.40;;;;;;;-3.27;80.44;99410.52;2111952;82;21121;-73
2020/12/31 04:15:38;;;;;;;91.82;45.17;;;;;;;-3.27;80.49;99410.99;2116619;82;21089;-74
2020/12/31 04:18:40;;;;;;;87.60;40.63;;;;;;;-3.24;80.44;99417.28;2110825;82;21173;-73
2020/12/31 04:21:41;;;;;;;102.35;45.92;;;;;;;-3.25;80.27;99419.52;2114957;82;21245;-73
2020/12/31 04:24:42;;;;;;;93.15;44.33;;;;;;;-3.25;80.26;99409.97;2084191;83;21182;-73
2020/12/31 04:27:44;;;;;;;92.57;44.33;;;;;;;-3.29;80.19;99418.89;2078044;84;21085;-73
2020/12/31 04:30:48;;;;;;;99.72;43.65;;;;;;;-3.31;80.19;99419.44;2079463;84;21116;-74
2020/12/31 04:33:49;;;;;;;100.92;44.03;;;;;;;-3.40;80.05;99413.53;2080448;84;21618;-72
2020/12/31 04:36:51;;;;;;;90.07;41.53;;;;;;;-3.48;80.06;99407.52;2081013;84;21164;-73
2020/12/31 04:39:53;;;;;;;93.80;42.88;;;;;;;-3.56;80.19;99417.53;2083007;84;21224;-72
2020/12/31 04:42:55;;;;;;;93.75;41.77;;;;;;;-3.61;80.28;99416.98;2080022;84;21157;-74
2020/12/31 04:45:56;;;;;;;86.80;43.08;;;;;;;-3.64;80.49;99425.77;2079990;84;21112;-73
2020/12/31 04:49:09;;;;;;;80.40;38.20;;;;;;;-3.66;80.60;99426.35;2057287;84;21136;-72
2020/12/31 04:52:11;;;;;;;86.72;39.15;;;;;;;-3.68;80.77;99424.31;2066928;84;21173;-73
2020/12/31 04:55:13;;;;;;;91.30;42.35;;;;;;;-3.68;80.73;99431.26;2082560;84;21527;-73
2020/12/31 04:58:16;;;;;;;83.60;39.95;;;;;;;-3.70;80.65;99429.22;2079605;84;21591;-74
2020/12/31 05:01:17;;;;;;;75.22;34.63;;;;;;;-3.75;80.52;99430.77;2080522;84;21160;-73
2020/12/31 05:04:23;;;;;;;77.45;34.38;;;;;;;-3.80;80.42;99436.73;2079574;84;21131;-73
2020/12/31 05:07:25;;;;;;;69.92;34.08;;;;;;;-3.92;80.40;99446.05;2076753;84;21518;-72
2020/12/31 05:10:27;;;;;;;79.80;36.10;;;;;;;-4.06;80.45;99444.73;2080083;84;21163;-73
2020/12/31 05:13:29;;;;;;;64.47;30.48;;;;;;;-4.07;80.88;99449.56;2079387;84;21589;-73
2020/12/31 05:16:30;;;;;;;71.13;33.93;;;;;;;-4.02;81.23;99451.42;2081234;84;21165;-73
2020/12/31 05:19:33;;;;;;;79.05;36.65;;;;;;;-3.91;81.81;99450.80;2082599;84;21124;-73
2020/12/31 05:22:34;;;;;;;75.78;35.75;;;;;;;-3.81;81.87;99450.59;2082498;83;21202;-73
2020/12/31 05:25:35;;;;;;;79.50;35.17;;;;;;;-3.67;81.74;99452.36;2126504;82;21132;-73
2020/12/31 05:28:39;;;;;;;78.90;35.87;;;;;;;-3.53;81.63;99458.01;2122815;82;21125;-73
2020/12/31 05:31:55;;;;;;;72.17;34.63;;;;;;;-3.42;81.40;99453.00;2127919;82;21117;-72
2020/12/31 05:34:57;;;;;;;73.45;33.18;;;;;;;-3.32;81.31;99461.03;2123181;82;21128;-73
2020/12/31 05:38:00;;;;;;;97.08;35.08;;;;;;;-3.31;80.96;99466.61;2124462;82;21172;-73
2020/12/31 05:41:03;;;;;;;68.45;33.92;;;;;;;-3.29;81.16;99459.11;2126708;82;21646;-73
2020/12/31 05:44:07;;;;;;;67.40;33.18;;;;;;;-3.26;80.88;99453.72;2122311;82;21196;-73
2020/12/31 05:47:08;;;;;;;75.52;34.78;;;;;;;-3.24;80.68;99459.66;2127170;82;21164;-73
2020/12/31 05:50:26;;;;;;;70.40;33.50;;;;;;;-3.29;80.32;99458.28;2124075;82;21078;-72
2020/12/31 05:53:28;;;;;;;80.67;35.43;;;;;;;-3.29;80.49;99466.89;2126095;82;21087;-73
2020/12/31 05:56:32;;;;;;;74.10;36.55;;;;;;;-3.30;80.36;99476.05;2126925;82;21645;-74
2020/12/31 05:59:36;;;;;;;69.58;34.15;;;;;;;-3.34;80.36;99468.09;2123588;82;21107;-72
2020/12/31 06:02:44;;;;;;;77.03;36.15;;;;;;;-3.36;80.47;99470.78;2125850;82;21585;-73
2020/12/31 06:05:51;;;;;;;75.62;36.93;;;;;;;-3.45;80.19;99469.58;2123094;82;21107;-73
2020/12/31 06:09:01;;;;;;;75.28;36.65;;;;;;;-3.56;80.24;99474.59;2117746;82;21956;-73
2020/12/31 06:12:11;;;;;;;80.53;37.88;;;;;;;-3.63;80.31;99486.27;2121770;82;21116;-73
2020/12/31 06:15:12;;;;;;;118.20;49.67;;;;;;;-3.60;80.46;99483.49;2124948;82;22159;-73
2020/12/31 06:18:17;;;;;;;77.58;35.23;;;;;;;-3.61;80.38;99487.82;2125520;82;21684;-73
2020/12/31 06:21:22;;;;;;;63.05;32.08;;;;;;;-3.54;80.44;99484.88;2091296;82;21634;-72
2020/12/31 06:24:34;;;;;;;64.70;30.72;;;;;;;-3.58;80.59;99487.27;2092463;82;21183;-74
2020/12/31 06:27:39;;;;;;;69.60;31.35;;;;;;;-3.61;80.73;99488.29;2116079;82;21145;-73
2020/12/31 06:30:46;;;;;;;69.07;32.35;;;;;;;-3.61;80.59;99495.59;2118284;82;21593;-73
2020/12/31 06:33:52;;;;;;;68.35;33.42;;;;;;;-3.70;80.29;99496.63;2116410;82;21165;-74
2020/12/31 06:36:56;;;;;;;64.62;29.77;;;;;;;-3.75;80.50;99495.59;2118875;81;21184;-73
2020/12/31 06:40:28;;;;;;;65.25;31.12;;;;;;;-3.78;80.61;99499.67;2096697;82;21177;-72
2020/12/31 06:43:33;;;;;;;69.25;32.23;;;;;;;-3.74;80.92;99493.86;2117588;82;21203;-73
2020/12/31 06:46:50;;;;;;;71.92;32.20;;;;;;;-3.69;81.02;99493.95;2114574;82;21121;-73
2020/12/31 06:49:54;;;;;;;63.78;31.25;;;;;;;-3.58;80.97;99495.05;2117427;82;21200;-72
2020/12/31 06:52:55;;;;;;;68.47;33.23;;;;;;;-3.58;80.54;99498.48;2116462;82;21123;-73
2020/12/31 06:56:00;;;;;;;65.80;32.75;;;;;;;-3.51;80.73;99498.96;2112435;82;21266;-73
2020/12/31 06:59:01;;;;;;;68.10;31.73;;;;;;;-3.45;80.75;99493.39;2093983;82;21196;-73
2020/12/31 07:02:23;;;;;;;68.30;32.33;;;;;;;-3.49;80.49;99493.19;2117913;82;21564;-73
2020/12/31 07:05:24;;;;;;;73.02;32.83;;;;;;;-3.51;80.49;99498.96;2089995;82;21111;-72
2020/12/31 07:08:38;;;;;;;59.70;27.55;;;;;;;-3.54;80.41;99501.27;2112332;82;21723;-72
2020/12/31 07:11:41;;;;;;;65.37;34.05;;;;;;;-3.57;80.19;99504.05;2116917;82;21109;-73
2020/12/31 07:14:47;;;;;;;66.70;31.30;;;;;;;-3.55;80.35;99506.53;2119145;82;21589;-69
2020/12/31 07:17:51;;;;;;;60.60;29.00;;;;;;;-3.69;80.05;99509.52;2114235;82;21539;-72
2020/12/31 07:20:55;;;;;;;61.27;28.10;;;;;;;-3.85;80.08;99516.53;2118348;82;21161;-73
2020/12/31 07:23:56;;;;;;;69.72;32.35;;;;;;;-3.88;80.36;99511.52;2092631;82;21173;-73
2020/12/31 07:27:00;;;;;;;62.30;31.02;;;;;;;-3.91;80.57;99503.94;2113653;82;21165;-73
2020/12/31 07:30:12;;;;;;;68.17;30.85;;;;;;;-3.90;80.56;99499.11;2113429;82;21133;-72
2020/12/31 07:33:13;;;;;;;63.75;28.98;;;;;;;-3.84;80.91;99502.62;2113829;82;21069;-72
2020/12/31 07:36:15;;;;;;;54.77;28.77;;;;;;;-3.75;81.01;99508.55;2115861;82;21172;-71
2020/12/31 07:39:17;;;;;;;61.57;29.80;;;;;;;-3.65;80.97;99496.72;2118180;82;21157;-70
2020/12/31 07:42:18;;;;;;;59.05;28.52;;;;;;;-3.54;80.94;99508.23;2115813;82;21646;-70
2020/12/31 07:45:20;;;;;;;62.10;28.70;;;;;;;-3.49;80.72;99507.46;2116192;82;21132;-70
2020/12/31 07:48:24;;;;;;;67.45;29.63;;;;;;;-3.44;80.67;99510.62;2117640;82;21522;-71
2020/12/31 07:51:25;;;;;;;69.75;30.82;;;;;;;-3.36;80.80;99512.28;2113574;82;21242;-68
2020/12/31 07:54:27;;;;;;;65.57;30.08;;;;;;;-3.29;80.61;99511.00;2115070;82;21065;-70
2020/12/31 07:57:30;;;;;;;62.48;29.70;;;;;;;-3.24;80.52;99514.16;2122229;82;21216;-71
2020/12/31 08:00:32;;;;;;;62.48;30.40;;;;;;;-3.09;80.52;99508.94;2118074;82;21849;-68
2020/12/31 08:03:34;;;;;;;61.92;30.65;;;;;;;-3.02;80.46;99510.21;2116463;82;21094;-70
2020/12/31 08:06:36;;;;;;;58.33;29.95;;;;;;;-2.95;80.35;99505.84;2114618;82;21210;-71
2020/12/31 08:09:38;;;;;;;63.68;33.33;;;;;;;-2.84;80.43;99501.28;2113086;82;21133;-71
2020/12/31 08:12:40;;;;;;;108.27;45.60;;;;;;;-2.67;80.45;99510.61;2118079;82;21235;-71
2020/12/31 08:15:54;;;;;;;92.88;38.55;;;;;;;-2.50;80.61;99507.76;2119871;82;21141;-70
2020/12/31 08:18:57;;;;;;;107.95;40.52;;;;;;;-2.15;81.02;99499.42;2118771;82;21141;-71
2020/12/31 08:22:10;;;;;;;121.00;43.68;;;;;;;-1.74;81.00;99498.44;2115822;82;21109;-71
2020/12/31 08:25:18;;;;;;;107.45;39.83;;;;;;;-1.28;80.99;99497.87;2114483;82;21085;-73
2020/12/31 08:28:21;;;;;;;70.17;31.65;;;;;;;-0.81;80.86;99494.19;2119265;82;21937;-71
2020/12/31 08:31:24;;;;;;;70.08;35.17;;;;;;;-0.33;80.77;99491.58;2110056;82;21217;-71
2020/12/31 08:34:27;;;;;;;109.00;51.68;;;;;;;0.09;80.50;99493.25;2116997;82;21671;-71
2020/12/31 08:37:28;;;;;;;107.25;49.53;;;;;;;0.42;80.13;99489.84;2118803;82;21156;-71
2020/12/31 08:40:31;;;;;;;138.00;60.28;;;;;;;0.75;79.98;99492.94;2116235;82;21175;-72
2020/12/31 08:43:37;;;;;;;98.12;44.53;;;;;;;1.02;79.83;99489.95;2118497;82;21124;-72
2020/12/31 08:46:38;;;;;;;93.60;47.30;;;;;;;1.27;79.20;99491.94;2116217;82;21567;-71
2020/12/31 08:49:45;;;;;;;89.42;45.20;;;;;;;1.42;78.99;99502.94;2115866;82;22104;-73
2020/12/31 08:52:47;;;;;;;95.40;45.48;;;;;;;1.63;78.79;99506.90;2117311;82;21178;-69
2020/12/31 08:55:48;;;;;;;71.85;34.95;;;;;;;1.79;78.46;99509.45;2116440;82;21133;-70
2020/12/31 08:58:50;;;;;;;60.70;32.00;;;;;;;2.11;78.58;99508.61;2116023;82;21157;-70
2020/12/31 09:01:57;;;;;;;63.65;33.98;;;;;;;2.38;78.22;99516.41;2115337;82;21168;-69
2020/12/31 09:05:13;;;;;;;64.03;33.10;;;;;;;2.59;77.87;99513.75;2120014;82;21237;-69
2020/12/31 09:08:15;;;;;;;57.60;31.12;;;;;;;2.75;77.44;99511.97;2114979;82;21196;-69
2020/12/31 09:11:26;;;;;;;57.38;30.20;;;;;;;2.87;77.23;99505.66;2117107;82;21129;-70
2020/12/31 09:14:30;;;;;;;61.92;32.75;;;;;;;3.09;77.46;99505.95;2117483;82;21560;-73
2020/12/31 09:17:34;;;;;;;60.80;31.48;;;;;;;3.35;77.05;99507.59;2116293;82;21180;-72
2020/12/31 09:20:36;;;;;;;58.28;31.48;;;;;;;3.46;76.40;99501.39;2117408;82;21534;-69
2020/12/31 09:23:38;;;;;;;57.00;30.40;;;;;;;3.47;76.04;99500.45;2113841;82;21161;-69
2020/12/31 09:26:40;;;;;;;56.65;30.32;;;;;;;3.51;76.07;99500.02;2087290;83;21166;-69
2020/12/31 09:29:42;;;;;;;59.42;30.85;;;;;;;3.59;76.08;99496.73;2094387;83;21185;-68
2020/12/31 09:32:47;;;;;;;56.98;31.42;;;;;;;3.80;75.77;99497.44;2085208;83;21148;-67
2020/12/31 09:35:50;;;;;;;57.78;30.40;;;;;;;4.08;76.16;99503.27;2086732;83;21236;-71
2020/12/31 09:38:52;;;;;;;52.35;29.30;;;;;;;4.32;75.52;99499.71;2085625;83;21198;-67
2020/12/31 09:41:54;;;;;;;51.98;28.87;;;;;;;4.50;75.45;99499.80;2088534;83;21187;-69
2020/12/31 09:44:57;;;;;;;51.13;26.35;;;;;;;4.61;74.97;99499.62;2089231;83;21093;-68
2020/12/31 09:48:01;;;;;;;48.17;27.60;;;;;;;4.76;74.98;99498.69;2089331;83;21184;-68
2020/12/31 09:51:03;;;;;;;47.17;26.93;;;;;;;4.87;74.67;99503.77;2086420;83;21151;-67
2020/12/31 09:54:05;;;;;;;52.50;27.87;;;;;;;4.96;74.31;99499.43;2085213;83;21160;-67
2020/12/31 09:57:06;;;;;;;44.18;24.75;;;;;;;5.03;74.25;99498.34;2086502;83;21588;-68
2020/12/31 10:00:08;;;;;;;45.55;25.30;;;;;;;5.03;73.74;99495.72;2088528;83;21190;-67
2020/12/31 10:03:11;;;;;;;41.10;23.60;;;;;;;4.89;73.69;99500.48;2086635;83;21135;-71
2020/12/31 10:06:13;;;;;;;35.85;19.73;;;;;;;4.67;73.13;99496.44;2090331;83;21841;-66
2020/12/31 10:09:16;;;;;;;42.05;24.15;;;;;;;4.57;73.61;99496.13;2091894;82;21241;-67
2020/12/31 10:12:17;;;;;;;58.10;33.25;;;;;;;4.58;73.74;99491.20;2090048;83;21621;-71
2020/12/31 10:15:19;;;;;;;53.23;29.80;;;;;;;4.27;73.51;99487.48;2085408;82;21214;-71
2020/12/31 10:18:21;;;;;;;57.83;32.38;;;;;;;4.17;73.61;99498.51;2090936;83;21106;-69
2020/12/31 10:21:22;;;;;;;63.40;33.65;;;;;;;4.09;73.89;99491.81;2086378;82;21143;-71
2020/12/31 10:24:24;;;;;;;45.65;27.85;;;;;;;4.01;73.92;99492.51;2092990;83;21213;-69
2020/12/31 10:27:25;;;;;;;48.78;26.90;;;;;;;4.02;74.05;99489.72;2122444;82;21133;-69
2020/12/31 10:30:27;;;;;;;46.58;26.12;;;;;;;4.15;74.14;99488.63;2118132;82;21113;-70
2020/12/31 10:33:28;;;;;;;46.58;25.70;;;;;;;4.19;73.71;99486.87;2124613;82;21180;-71
2020/12/31 10:36:29;;;;;;;46.70;25.57;;;;;;;4.23;73.17;99478.25;2121194;82;21133;-68
2020/12/31 10:39:31;;;;;;;43.60;24.65;;;;;;;4.23;73.78;99472.99;2121121;82;21169;-68
2020/12/31 10:42:33;;;;;;;43.40;22.77;;;;;;;4.29;73.87;99475.05;2117639;82;21474;-72
2020/12/31 10:45:35;;;;;;;41.08;24.10;;;;;;;4.37;73.65;99475.66;2116115;82;21233;-71
2020/12/31 10:48:36;;;;;;;44.38;23.95;;;;;;;4.44;73.77;99476.23;2118242;82;21132;-69
2020/12/31 10:51:40;;;;;;;40.55;24.00;;;;;;;4.45;73.58;99471.34;2118812;82;21145;-70
2020/12/31 10:54:43;;;;;;;43.08;23.42;;;;;;;4.56;73.48;99471.66;2123832;82;21456;-67
2020/12/31 10:57:45;;;;;;;39.35;22.95;;;;;;;4.67;73.37;99463.59;2098977;82;21567;-68
2020/12/31 11:00:47;;;;;;;45.03;23.57;;;;;;;4.78;73.35;99456.47;2120192;82;21172;-68
2020/12/31 11:03:48;;;;;;;41.42;22.50;;;;;;;4.87;73.29;99456.91;2120485;82;21130;-73
2020/12/31 11:06:50;;;;;;;37.05;21.05;;;;;;;4.91;73.06;99455.16;2119162;82;21185;-69
2020/12/31 11:09:51;;;;;;;43.42;22.80;;;;;;;4.94;72.39;99449.61;2122824;82;22354;-69
2020/12/31 11:12:53;;;;;;;35.58;21.35;;;;;;;4.93;72.57;99444.52;2119042;82;21615;-69
2020/12/31 11:15:55;;;;;;;34.55;19.95;;;;;;;4.95;72.41;99445.17;2124117;82;21677;-69
2020/12/31 11:18:56;;;;;;;38.00;21.27;;;;;;;5.00;72.28;99436.36;2121087;82;21160;-68
2020/12/31 11:21:58;;;;;;;37.30;20.48;;;;;;;4.99;72.17;99436.03;2119664;82;21106;-69
2020/12/31 11:24:59;;;;;;;31.93;19.55;;;;;;;4.96;72.16;99428.94;2120082;82;21150;-72
2020/12/31 11:28:01;;;;;;;32.60;18.95;;;;;;;4.89;72.01;99429.50;2098061;82;21154;-69
2020/12/31 11:31:02;;;;;;;36.10;20.20;;;;;;;4.81;72.05;99431.20;2118894;82;21136;-70
2020/12/31 11:34:04;;;;;;;37.73;20.27;;;;;;;4.77;72.00;99428.05;2116966;82;21200;-67
2020/12/31 11:37:05;;;;;;;36.93;19.80;;;;;;;4.68;71.63;99435.02;2120402;82;21131;-67
2020/12/31 11:40:07;;;;;;;34.45;19.77;;;;;;;4.66;71.85;99426.44;2121248;82;21105;-70
2020/12/31 11:43:09;;;;;;;37.65;21.00;;;;;;;4.67;71.93;99424.63;2120550;82;21201;-78
2020/12/31 11:46:12;;;;;;;36.38;19.95;;;;;;;4.65;71.58;99425.29;2119856;82;21134;-70
2020/12/31 11:49:13;;;;;;;39.08;21.10;;;;;;;4.60;72.00;99418.32;2117560;82;21161;-81
2020/12/31 11:52:15;;;;;;;37.40;20.32;;;;;;;4.63;71.86;99418.03;2120303;82;21721;-76
2020/12/31 11:55:16;;;;;;;36.75;20.80;;;;;;;4.61;71.76;99418.16;2121137;82;21182;-78
2020/12/31 11:58:19;;;;;;;37.15;21.00;;;;;;;4.62;71.74;99417.20;2073499;82;21115;-76
2020/12/31 12:01:20;;;;;;;38.42;21.07;;;;;;;4.59;71.79;99412.25;2118283;82;21148;-72
2020/12/31 12:04:22;;;;;;;41.18;21.40;;;;;;;4.63;71.72;99415.41;2119448;82;21182;-73
2020/12/31 12:07:24;;;;;;;38.75;20.05;;;;;;;4.62;71.88;99408.01;2118224;82;21538;-75
2020/12/31 12:10:26;;;;;;;33.70;20.35;;;;;;;4.61;71.57;99408.14;2120907;82;21191;-77
2020/12/31 12:13:28;;;;;;;34.05;18.87;;;;;;;4.52;71.38;99403.28;2118865;82;21854;-77
2020/12/31 12:16:29;;;;;;;34.78;19.35;;;;;;;4.46;71.69;99399.43;2097297;82;21177;-71
2020/12/31 12:19:30;;;;;;;34.05;19.82;;;;;;;4.40;71.66;99400.50;2117925;82;21201;-72
2020/12/31 12:22:32;;;;;;;32.73;19.17;;;;;;;4.34;71.62;99398.46;2120168;82;21177;-80
2020/12/31 12:25:34;;;;;;;34.98;20.02;;;;;;;4.31;71.82;99401.34;2116961;82;21697;-85
2020/12/31 12:28:35;;;;;;;36.38;20.45;;;;;;;4.23;71.43;99392.90;2115053;82;21138;-72
2020/12/31 12:31:38;;;;;;;36.33;20.65;;;;;;;4.16;71.88;99393.11;2115012;82;21199;-72
2020/12/31 12:34:40;;;;;;;42.10;22.58;;;;;;;4.11;71.92;99391.40;2122277;82;21168;-84
2020/12/31 12:37:42;;;;;;;43.10;22.13;;;;;;;4.08;71.81;99394.31;2114998;82;21200;-78
2020/12/31 12:40:43;;;;;;;39.58;21.62;;;;;;;4.00;71.68;99391.93;2112528;82;21169;-78
2020/12/31 12:43:45;;;;;;;39.75;20.20;;;;;;;3.97;71.83;99390.91;2116116;82;21102;-77
2020/12/31 12:46:47;;;;;;;38.28;20.95;;;;;;;3.95;71.80;99390.70;2117919;82;21143;-74
2020/12/31 12:49:48;;;;;;;36.28;20.55;;;;;;;3.93;71.86;99393.94;2125843;82;21493;-83
2020/12/31 12:52:50;;;;;;;39.88;21.52;;;;;;;3.92;71.99;99395.75;2117347;82;21187;-76
2020/12/31 12:55:51;;;;;;;41.35;21.90;;;;;;;3.93;72.01;99388.69;2098112;82;21585;-73
2020/12/31 12:58:53;;;;;;;40.43;22.82;;;;;;;3.93;72.06;99386.89;2121366;82;21192;-73
2020/12/31 13:01:55;;;;;;;39.45;20.55;;;;;;;3.92;72.18;99382.63;2116154;82;21167;-74
2020/12/31 13:04:56;;;;;;;42.53;23.85;;;;;;;3.91;72.08;99388.82;2117853;82;21139;-74
2020/12/31 13:07:58;;;;;;;42.13;24.35;;;;;;;3.82;72.20;99389.19;2107574;82;21138;-77
2020/12/31 13:10:59;;;;;;;40.17;22.65;;;;;;;3.74;72.04;99389.06;2097799;83;21066;-74
2020/12/31 13:14:01;;;;;;;44.75;23.80;;;;;;;3.70;72.34;99392.95;2117545;82;21541;-74
2020/12/31 13:17:02;;;;;;;41.90;24.18;;;;;;;3.68;72.58;99391.43;2093631;82;21529;-75
2020/12/31 13:20:06;;;;;;;40.08;22.17;;;;;;;3.65;72.63;99392.53;2117835;82;21202;-77
2020/12/31 13:23:10;;;;;;;49.20;22.93;;;;;;;3.59;72.71;99393.92;2114505;83;21125;-75
2020/12/31 13:26:12;;;;;;;43.40;23.07;;;;;;;3.55;72.81;99392.56;2118523;82;21137;-78
2020/12/31 13:29:13;;;;;;;43.28;23.22;;;;;;;3.52;72.80;99392.84;2115941;82;21112;-74
2020/12/31 13:32:15;;;;;;;42.45;22.62;;;;;;;3.49;72.93;99394.44;2114829;82;21168;-74
2020/12/31 13:35:16;;;;;;;51.02;24.82;;;;;;;3.42;72.97;99392.01;2118735;82;21164;-78
2020/12/31 13:38:18;;;;;;;43.13;22.75;;;;;;;3.35;73.05;99394.37;2115252;82;21165;-74
2020/12/31 13:41:19;;;;;;;45.00;23.73;;;;;;;3.29;73.09;99387.02;2115638;82;21173;-74
2020/12/31 13:44:22;;;;;;;50.63;25.70;;;;;;;3.26;73.26;99395.66;2119945;82;21090;-74
2020/12/31 13:47:23;;;;;;;49.77;24.75;;;;;;;3.20;73.28;99397.52;2119095;82;21148;-87
2020/12/31 13:50:26;;;;;;;43.42;23.38;;;;;;;3.13;73.31;99398.08;2116695;82;21173;-79
2020/12/31 13:53:27;;;;;;;51.15;25.97;;;;;;;3.03;73.40;99401.16;2120720;82;21117;-78
2020/12/31 13:56:29;;;;;;;54.15;26.82;;;;;;;2.94;73.43;99402.47;2115238;82;21192;-73
2020/12/31 13:59:32;;;;;;;55.88;28.42;;;;;;;2.86;73.55;99397.89;2117731;82;21553;-74
2020/12/31 14:02:34;;;;;;;52.53;28.50;;;;;;;2.78;73.67;99396.42;2114563;82;21148;-75